Time;durP1;ratioP1;P1;durP2;ratioP2;P2;SDS_P1;SDS_P2;PMS_P1;PMS_P2;Temp;Humidity;BMP_temperature;BMP_pressure;BME280_temperature;BME280_humidity;BME280_pressure;Samples;Min_cycle;Max_cycle;Signal;HPM_P1;HPM_P2
2023/12/11 00:00:00;;;;;;;;;;;;;;;;;;6291324;28;20012;-86
2023/12/11 00:03:01;;;;;;;;;;;;;;;;;;6305672;28;20034;-86
2023/12/11 00:06:01;;;;;;;;;;;;;;;;;;6287478;28;19965;-86
2023/12/11 00:09:01;;;;;;;;;;;;;;;;;;6309089;28;19913;-86
2023/12/11 00:12:01;;;;;;;;;;;;;;;;;;6299550;28;19916;-86
2023/12/11 00:15:02;;;;;;;;;;;;;;;;;;6283106;28;19936;-86
2023/12/11 00:18:02;;;;;;;;;;;;;;;;;;6295882;28;19962;-87
2023/12/11 00:21:02;;;;;;;;;;;;;;;;;;6279386;28;19956;-86
2023/12/11 00:24:02;;;;;;;;;;;;;;;;;;6288885;28;19966;-86
2023/12/11 00:27:02;;;;;;;;;;;;;;;;;;6309576;28;19927;-86
2023/12/11 00:30:04;;;;;;;;;;;;;;;;;;6311304;28;20380;-86
2023/12/11 00:33:04;;;;;;;;;;;;;;;;;;6302995;28;19927;-87
2023/12/11 00:36:04;;;;;;;;;;;;;;;;;;6324034;28;20007;-87
2023/12/11 00:39:04;;;;;;;;;;;;;;;;;;6319069;28;19912;-86
2023/12/11 00:42:04;;;;;;;;;;;;;;;;;;6305208;28;20372;-86
2023/12/11 00:45:05;;;;;;;;;;;;;;;;;;6293813;28;19920;-86
2023/12/11 00:48:05;;;;;;;;;;;;;;;;;;6303965;28;19913;-86
2023/12/11 00:51:05;;;;;;;;;;;;;;;;;;6309932;28;19943;-87
2023/12/11 00:54:05;;;;;;;;;;;;;;;;;;6310693;28;19971;-86
2023/12/11 00:57:06;;;;;;;;;;;;;;;;;;6312347;28;19912;-86
2023/12/11 01:00:06;;;;;;;;;;;;;;;;;;6294875;28;19923;-86
2023/12/11 01:03:06;;;;;;;;;;;;;;;;;;6312284;28;19935;-86
2023/12/11 01:06:06;;;;;;;;;;;;;;;;;;6308318;28;19916;-85
2023/12/11 01:09:06;;;;;;;;;;;;;;;;;;6284995;28;19966;-85
2023/12/11 01:12:06;;;;;;;;;;;;;;;;;;6299981;28;19913;-86
2023/12/11 01:15:06;;;;;;;;;;;;;;;;;;6290627;28;19921;-86
2023/12/11 01:18:07;;;;;;;;;;;;;;;;;;6302910;28;19927;-87
2023/12/11 01:21:07;;;;;;;;;;;;;;;;;;6295443;28;19912;-85
2023/12/11 01:24:08;;;;;;;;;;;;;;;;;;6306214;28;19946;-85
2023/12/11 01:27:08;;;;;;;;;;;;;;;;;;6308145;28;20328;-85
2023/12/11 01:30:08;;;;;;;;;;;;;;;;;;6304626;28;20532;-86
2023/12/11 01:33:08;;;;;;;;;;;;;;;;;;6307607;28;19993;-85
2023/12/11 01:36:08;;;;;;;;;;;;;;;;;;6290799;28;19966;-86
2023/12/11 01:39:08;;;;;;;;;;;;;;;;;;6331093;28;20361;-86
2023/12/11 01:42:09;;;;;;;;;;;;;;;;;;6308962;28;20392;-86
2023/12/11 01:45:09;;;;;;;;;;;;;;;;;;6319023;28;19916;-85
2023/12/11 01:48:09;;;;;;;;;;;;;;;;;;6315412;28;20373;-86
2023/12/11 01:51:09;;;;;;;;;;;;;;;;;;6305621;28;19912;-85
2023/12/11 01:54:09;;;;;;;;;;;;;;;;;;6288564;28;19912;-86
2023/12/11 01:57:10;;;;;;;;;;;;;;;;;;6313192;28;19923;-84
2023/12/11 02:00:10;;;;;;;;;;;;;;;;;;6308107;28;19912;-85
2023/12/11 02:03:10;;;;;;;;;;;;;;;;;;6301702;28;19928;-86
2023/12/11 02:06:10;;;;;;;;;;;;;;;;;;6303654;28;19912;-86
2023/12/11 02:09:10;;;;;;;;;;;;;;;;;;6302914;28;19913;-86
2023/12/11 02:12:11;;;;;;;;;;;;;;;;;;6302128;28;20373;-85
2023/12/11 02:15:11;;;;;;;;;;;;;;;;;;6308647;28;19934;-86
2023/12/11 02:18:11;;;;;;;;;;;;;;;;;;6307809;28;19967;-85
2023/12/11 02:21:11;;;;;;;;;;;;;;;;;;6309139;28;19912;-85
2023/12/11 02:24:11;;;;;;;;;;;;;;;;;;6312960;28;19916;-85
2023/12/11 02:27:11;;;;;;;;;;;;;;;;;;6305079;28;19924;-86
2023/12/11 02:30:11;;;;;;;;;;;;;;;;;;6305871;28;20296;-85
2023/12/11 02:33:12;;;;;;;;;;;;;;;;;;6319950;28;19924;-86
2023/12/11 02:36:12;;;;;;;;;;;;;;;;;;6305897;28;19918;-86
2023/12/11 02:39:12;;;;;;;;;;;;;;;;;;6297366;28;19927;-87
2023/12/11 02:42:12;;;;;;;;;;;;;;;;;;6319020;28;19912;-86
2023/12/11 02:45:12;;;;;;;;;;;;;;;;;;6313194;28;19922;-86
2023/12/11 02:48:12;;;;;;;;;;;;;;;;;;6304540;28;19946;-87
2023/12/11 02:51:13;;;;;;;;;;;;;;;;;;6303435;28;19916;-87
2023/12/11 02:54:13;;;;;;;;;;;;;;;;;;6301308;28;19920;-86
2023/12/11 02:57:13;;;;;;;;;;;;;;;;;;6307319;28;19916;-87
2023/12/11 03:00:13;;;;;;;;;;;;;;;;;;6302844;28;19913;-87
2023/12/11 03:03:13;;;;;;;;;;;;;;;;;;6308910;28;19927;-86
2023/12/11 03:06:13;;;;;;;;;;;;;;;;;;6305014;28;19917;-87
2023/12/11 03:09:13;;;;;;;;;;;;;;;;;;6304814;28;19917;-86
2023/12/11 03:12:14;;;;;;;;;;;;;;;;;;6301166;28;20015;-87
2023/12/11 03:15:14;;;;;;;;;;;;;;;;;;6295048;28;19922;-87
2023/12/11 03:18:14;;;;;;;;;;;;;;;;;;6306944;28;19916;-88
2023/12/11 03:21:15;;;;;;;;;;;;;;;;;;6319692;28;19919;-87
2023/12/11 03:24:15;;;;;;;;;;;;;;;;;;6290809;28;19938;-87
2023/12/11 03:27:15;;;;;;;;;;;;;;;;;;6315607;28;20350;-88
2023/12/11 03:30:15;;;;;;;;;;;;;;;;;;6299205;28;19963;-88
2023/12/11 03:33:16;;;;;;;;;;;;;;;;;;6317408;28;19947;-87
2023/12/11 03:36:16;;;;;;;;;;;;;;;;;;6312090;28;19913;-87
2023/12/11 03:39:16;;;;;;;;;;;;;;;;;;6339978;28;20436;-87
2023/12/11 03:42:16;;;;;;;;;;;;;;;;;;6317926;28;20412;-87
2023/12/11 03:45:16;;;;;;;;;;;;;;;;;;6315984;28;19927;-87
2023/12/11 03:48:16;;;;;;;;;;;;;;;;;;6300912;28;19912;-87
2023/12/11 03:51:17;;;;;;;;;;;;;;;;;;6300188;28;19913;-87
2023/12/11 03:54:17;;;;;;;;;;;;;;;;;;6321649;28;19913;-87
2023/12/11 03:57:17;;;;;;;;;;;;;;;;;;6285015;28;19912;-87
2023/12/11 04:00:17;;;;;;;;;;;;;;;;;;6315624;28;20281;-87
2023/12/11 04:03:17;;;;;;;;;;;;;;;;;;6334281;28;20305;-87
2023/12/11 04:06:18;;;;;;;;;;;;;;;;;;6296606;28;20337;-87
2023/12/11 04:09:18;;;;;;;;;;;;;;;;;;6327809;28;19912;-87
2023/12/11 04:12:18;;;;;;;;;;;;;;;;;;6322567;28;19962;-87
2023/12/11 04:15:18;;;;;;;;;;;;;;;;;;6322678;28;19912;-86
2023/12/11 04:18:18;;;;;;;;;;;;;;;;;;6294252;28;19916;-87
2023/12/11 04:21:18;;;;;;;;;;;;;;;;;;6318936;28;19924;-86
2023/12/11 04:24:18;;;;;;;;;;;;;;;;;;6279752;28;19917;-87
2023/12/11 04:27:18;;;;;;;;;;;;;;;;;;6289275;28;19917;-87
2023/12/11 04:30:19;;;;;;;;;;;;;;;;;;6317803;28;19927;-85
2023/12/11 04:33:19;;;;;;;;;;;;;;;;;;6307986;28;19916;-87
2023/12/11 04:36:19;;;;;;;;;;;;;;;;;;6301083;28;19916;-87
2023/12/11 04:39:19;;;;;;;;;;;;;;;;;;6279641;28;19920;-87
2023/12/11 04:42:19;;;;;;;;;;;;;;;;;;6284372;28;20300;-87
2023/12/11 04:45:19;;;;;;;;;;;;;;;;;;6297554;28;20351;-86
2023/12/11 04:48:19;;;;;;;;;;;;;;;;;;6312102;28;19962;-86
2023/12/11 04:51:20;;;;;;;;;;;;;;;;;;6320597;28;19920;-86
2023/12/11 04:54:20;;;;;;;;;;;;;;;;;;6299847;28;20357;-86
2023/12/11 04:57:20;;;;;;;;;;;;;;;;;;6298985;28;19947;-86
2023/12/11 05:00:20;;;;;;;;;;;;;;;;;;6321781;28;19912;-87
2023/12/11 05:03:21;;;;;;;;;;;;;;;;;;6303268;28;20330;-86
2023/12/11 05:06:21;;;;;;;;;;;;;;;;;;6305793;28;19923;-86
2023/12/11 05:09:21;;;;;;;;;;;;;;;;;;6306519;28;20390;-86
2023/12/11 05:12:21;;;;;;;;;;;;;;;;;;6307260;28;20365;-87
2023/12/11 05:15:21;;;;;;;;;;;;;;;;;;6300328;28;19999;-86
2023/12/11 05:18:21;;;;;;;;;;;;;;;;;;6288800;28;19921;-86
2023/12/11 05:21:22;;;;;;;;;;;;;;;;;;6322694;28;19908;-86
2023/12/11 05:24:22;;;;;;;;;;;;;;;;;;6316777;28;19973;-86
2023/12/11 05:27:22;;;;;;;;;;;;;;;;;;6295069;28;19916;-86
2023/12/11 05:30:22;;;;;;;;;;;;;;;;;;6308292;28;20320;-86
2023/12/11 05:33:22;;;;;;;;;;;;;;;;;;6323113;28;19916;-86
2023/12/11 05:36:22;;;;;;;;;;;;;;;;;;6307546;28;19961;-86
2023/12/11 05:39:23;;;;;;;;;;;;;;;;;;6304921;28;19916;-86
2023/12/11 05:42:23;;;;;;;;;;;;;;;;;;6318656;28;19916;-85
2023/12/11 05:45:23;;;;;;;;;;;;;;;;;;6315834;28;19916;-86
2023/12/11 05:48:23;;;;;;;;;;;;;;;;;;6306289;28;19912;-86
2023/12/11 05:51:24;;;;;;;;;;;;;;;;;;6314547;28;19912;-86
2023/12/11 05:54:24;;;;;;;;;;;;;;;;;;6301280;28;20277;-86
2023/12/11 05:57:24;;;;;;;;;;;;;;;;;;6323145;28;19908;-86
2023/12/11 06:00:25;;;;;;;;;;;;;;;;;;6325776;28;20323;-86
2023/12/11 06:03:25;;;;;;;;;;;;;;;;;;6306235;28;20346;-85
2023/12/11 06:06:25;;;;;;;;;;;;;;;;;;6307978;28;20281;-86
2023/12/11 06:09:25;;;;;;;;;;;;;;;;;;6323660;28;19912;-86
2023/12/11 06:12:25;;;;;;;;;;;;;;;;;;6322199;28;19970;-86
2023/12/11 06:15:25;;;;;;;;;;;;;;;;;;6303200;28;20064;-86
2023/12/11 06:18:25;;;;;;;;;;;;;;;;;;6301665;28;19916;-86
2023/12/11 06:21:26;;;;;;;;;;;;;;;;;;6321996;28;19965;-86
2023/12/11 06:24:26;;;;;;;;;;;;;;;;;;6323001;28;19916;-86
2023/12/11 06:27:27;;;;;;;;;;;;;;;;;;6313180;28;19917;-87
2023/12/11 06:30:27;;;;;;;;;;;;;;;;;;6292242;28;19927;-85
2023/12/11 06:33:27;;;;;;;;;;;;;;;;;;6309047;28;19916;-86
2023/12/11 06:36:28;;;;;;;;;;;;;;;;;;6319658;28;19923;-86
2023/12/11 06:39:28;;;;;;;;;;;;;;;;;;6300283;28;19913;-86
2023/12/11 06:42:32;;;;;;;;;;;;;;;;;;6299614;28;20085;-86
2023/12/11 06:45:32;;;;;;;;;;;;;;;;;;6305303;28;19916;-86
2023/12/11 06:48:32;;;;;;;;;;;;;;;;;;6317336;28;20301;-86
2023/12/11 06:51:34;;;;;;;;;;;;;;;;;;6303427;28;19908;-86
2023/12/11 06:54:35;;;;;;;;;;;;;;;;;;6322940;28;19995;-86
2023/12/11 06:57:35;;;;;;;;;;;;;;;;;;6317502;28;19938;-85
2023/12/11 07:00:35;;;;;;;;;;;;;;;;;;6303099;28;19920;-86
2023/12/11 07:03:35;;;;;;;;;;;;;;;;;;6329984;28;19916;-85
2023/12/11 07:06:35;;;;;;;;;;;;;;;;;;6300502;28;20427;-85
2023/12/11 07:09:35;;;;;;;;;;;;;;;;;;6300514;28;19992;-85
2023/12/11 07:12:38;;;;;;;;;;;;;;;;;;6315280;28;19912;-85
2023/12/11 07:15:39;;;;;;;;;;;;;;;;;;6299303;28;19908;-85
2023/12/11 07:18:39;;;;;;;;;;;;;;;;;;6301569;28;19912;-85
2023/12/11 07:21:39;;;;;;;;;;;;;;;;;;6299672;28;19908;-87
2023/12/11 07:24:39;;;;;;;;;;;;;;;;;;6305247;28;19916;-88
2023/12/11 07:27:40;;;;;;;;;;;;;;;;;;6321921;28;19959;-87
2023/12/11 07:30:40;;;;;;;;;;;;;;;;;;6302133;28;19920;-87
2023/12/11 07:33:41;;;;;;;;;;;;;;;;;;6308755;28;19908;-87
2023/12/11 07:36:41;;;;;;;;;;;;;;;;;;6323980;28;19908;-89
2023/12/11 07:39:41;;;;;;;;;;;;;;;;;;6299309;28;19912;-88
2023/12/11 07:42:41;;;;;;;;;;;;;;;;;;6305452;28;19923;-88
2023/12/11 07:45:41;;;;;;;;;;;;;;;;;;6297045;28;19916;-89
2023/12/11 07:48:41;;;;;;;;;;;;;;;;;;6296330;28;20270;-86
2023/12/11 07:51:43;;;;;;;;;;;;;;;;;;6304749;28;20430;-88
2023/12/11 07:54:43;;;;;;;;;;;;;;;;;;6310078;28;19938;-86
2023/12/11 07:57:43;;;;;;;;;;;;;;;;;;6323758;28;19913;-87
2023/12/11 08:00:43;;;;;;;;;;;;;;;;;;6299351;28;20384;-88
2023/12/11 08:03:44;;;;;;;;;;;;;;;;;;6309088;28;20023;-88
2023/12/11 08:06:44;;;;;;;;;;;;;;;;;;6317946;28;19954;-87
2023/12/11 08:09:44;;;;;;;;;;;;;;;;;;6306864;28;20277;-88
2023/12/11 08:12:44;;;;;;;;;;;;;;;;;;6298299;28;19916;-88
2023/12/11 08:15:45;;;;;;;;;;;;;;;;;;6310104;28;19920;-85
2023/12/11 08:18:45;;;;;;;;;;;;;;;;;;6310627;28;19912;-84
2023/12/11 08:21:45;;;;;;;;;;;;;;;;;;6311895;28;20337;-85
2023/12/11 08:24:45;;;;;;;;;;;;;;;;;;6322402;28;19969;-84
2023/12/11 08:27:46;;;;;;;;;;;;;;;;;;6320275;28;20319;-85
2023/12/11 08:30:46;;;;;;;;;;;;;;;;;;6305035;28;20369;-84
2023/12/11 08:33:46;;;;;;;;;;;;;;;;;;6304170;28;20404;-83
2023/12/11 08:36:46;;;;;;;;;;;;;;;;;;6307702;28;19908;-86
2023/12/11 08:39:46;;;;;;;;;;;;;;;;;;6318103;28;19958;-82
2023/12/11 08:42:46;;;;;;;;;;;;;;;;;;6301930;28;20015;-82
2023/12/11 08:45:47;;;;;;;;;;;;;;;;;;6302550;28;19957;-82
2023/12/11 08:48:47;;;;;;;;;;;;;;;;;;6307799;28;20284;-82
2023/12/11 08:51:47;;;;;;;;;;;;;;;;;;6305210;28;19958;-83
2023/12/11 08:54:47;;;;;;;;;;;;;;;;;;6318998;28;19919;-83
2023/12/11 08:57:48;;;;;;;;;;;;;;;;;;6300442;28;19940;-82
2023/12/11 09:00:48;;;;;;;;;;;;;;;;;;6286396;28;20349;-82
2023/12/11 09:03:48;;;;;;;;;;;;;;;;;;6306275;28;19927;-83
2023/12/11 09:06:48;;;;;;;;;;;;;;;;;;6305933;28;19917;-82
2023/12/11 09:09:48;;;;;;;;;;;;;;;;;;6326620;28;19912;-83
2023/12/11 09:12:48;;;;;;;;;;;;;;;;;;6312048;28;19923;-82
2023/12/11 09:15:49;;;;;;;;;;;;;;;;;;5957975;27;10000443;-82
2023/12/11 09:18:49;;;;;;;;;;;;;;;;;;6297050;28;20254;-82
2023/12/11 09:21:49;;;;;;;;;;;;;;;;;;6298886;28;19913;-83
2023/12/11 09:24:49;;;;;;;;;;;;;;;;;;6318556;28;19920;-83
2023/12/11 09:27:49;;;;;;;;;;;;;;;;;;6316237;28;20301;-83
2023/12/11 09:30:50;;;;;;;;;;;;;;;;;;5959484;28;10000443;-82
2023/12/11 09:33:50;;;;;;;;;;;;;;;;;;6307605;28;19970;-82
2023/12/11 09:36:50;;;;;;;;;;;;;;;;;;6307550;28;19919;-83
2023/12/11 09:39:50;;;;;;;;;;;;;;;;;;6332814;28;19912;-83
2023/12/11 09:42:50;;;;;;;;;;;;;;;;;;6308936;28;19916;-83
2023/12/11 09:45:51;;;;;;;;;;;;;;;;;;6309651;28;19912;-82
2023/12/11 09:48:51;;;;;;;;;;;;;;;;;;6322709;28;19919;-82
2023/12/11 09:51:51;;;;;;;;;;;;;;;;;;6300275;28;19909;-82
2023/12/11 09:54:51;;;;;;;;;;;;;;;;;;6305419;28;19912;-83
2023/12/11 09:57:52;;;;;;;;;;;;;;;;;;6325744;28;19915;-83
2023/12/11 10:00:52;;;;;;;;;;;;;;;;;;6324276;28;19914;-82
2023/12/11 10:03:52;;;;;;;;;;;;;;;;;;6305816;28;19946;-82
2023/12/11 10:06:53;;;;;;;;;;;;;;;;;;6321493;28;19935;-82
2023/12/11 10:09:53;;;;;;;;;;;;;;;;;;6325145;28;19912;-81
2023/12/11 10:12:54;;;;;;;;;;;;;;;;;;6324992;28;20010;-81
2023/12/11 10:15:54;;;;;;;;;;;;;;;;;;6316802;28;19912;-82
2023/12/11 10:18:54;;;;;;;;;;;;;;;;;;6319424;28;19912;-82
2023/12/11 10:21:54;;;;;;;;;;;;;;;;;;6306919;28;19958;-82
2023/12/11 10:24:54;;;;;;;;;;;;;;;;;;6312681;28;19916;-81
2023/12/11 10:27:54;;;;;;;;;;;;;;;;;;6318598;28;19916;-81
2023/12/11 10:30:55;;;;;;;;;;;;;;;;;;6311238;28;19924;-82
2023/12/11 10:33:55;;;;;;;;;;;;;;;;;;6323188;28;20376;-81
2023/12/11 10:36:55;;;;;;;;;;;;;;;;;;6309534;28;19949;-82
2023/12/11 10:39:55;;;;;;;;;;;;;;;;;;6324766;28;19912;-82
2023/12/11 10:42:56;;;;;;;;;;;;;;;;;;6314407;28;19917;-81
2023/12/11 10:45:56;;;;;;;;;;;;;;;;;;6318676;28;20266;-81
2023/12/11 10:48:56;;;;;;;;;;;;;;;;;;6320397;28;19988;-81
2023/12/11 10:51:56;;;;;;;;;;;;;;;;;;6330804;28;19912;-81
2023/12/11 10:54:56;;;;;;;;;;;;;;;;;;6317913;28;20380;-81
2023/12/11 10:57:56;;;;;;;;;;;;;;;;;;6318770;28;20467;-81
2023/12/11 11:00:57;;;;;;;;;;;;;;;;;;6315653;28;19915;-82
2023/12/11 11:03:57;;;;;;;;;;;;;;;;;;6331962;28;19919;-81
2023/12/11 11:06:57;;;;;;;;;;;;;;;;;;6312731;28;19916;-81
2023/12/11 11:09:57;;;;;;;;;;;;;;;;;;6319687;28;19908;-81
2023/12/11 11:12:57;;;;;;;;;;;;;;;;;;6306982;28;19935;-81
2023/12/11 11:15:57;;;;;;;;;;;;;;;;;;6313483;28;19966;-80
2023/12/11 11:18:57;;;;;;;;;;;;;;;;;;6297710;28;20289;-81
2023/12/11 11:21:58;;;;;;;;;;;;;;;;;;6296003;28;20273;-80
2023/12/11 11:24:58;;;;;;;;;;;;;;;;;;6300210;28;20297;-80
2023/12/11 11:27:58;;;;;;;;;;;;;;;;;;6314336;28;20331;-81
2023/12/11 11:30:58;;;;;;;;;;;;;;;;;;5950282;28;9999854;-82
2023/12/11 11:33:58;;;;;;;;;;;;;;;;;;6311641;28;19919;-81
2023/12/11 11:36:58;;;;;;;;;;;;;;;;;;6297785;28;20007;-80
2023/12/11 11:39:58;;;;;;;;;;;;;;;;;;6310340;28;20006;-82
2023/12/11 11:42:59;;;;;;;;;;;;;;;;;;6312532;28;20011;-80
2023/12/11 11:45:59;;;;;;;;;;;;;;;;;;6319604;28;19922;-81
2023/12/11 11:48:59;;;;;;;;;;;;;;;;;;6296939;28;19912;-81
2023/12/11 11:51:59;;;;;;;;;;;;;;;;;;6313914;28;19919;-80
2023/12/11 11:55:00;;;;;;;;;;;;;;;;;;6304870;28;19912;-80
2023/12/11 11:58:00;;;;;;;;;;;;;;;;;;6286931;28;20265;-81
2023/12/11 12:01:01;;;;;;;;;;;;;;;;;;6298123;28;19908;-81
2023/12/11 12:04:03;;;;;;;;;;;;;;;;;;6318098;28;19946;-80
2023/12/11 12:07:03;;;;;;;;;;;;;;;;;;6296720;28;19923;-81
2023/12/11 12:10:03;;;;;;;;;;;;;;;;;;6302792;28;20280;-81
2023/12/11 12:13:04;;;;;;;;;;;;;;;;;;6310381;28;20293;-82
2023/12/11 12:16:04;;;;;;;;;;;;;;;;;;6312701;28;19920;-82
2023/12/11 12:19:05;;;;;;;;;;;;;;;;;;6315202;28;19958;-82
2023/12/11 12:22:05;;;;;;;;;;;;;;;;;;6295058;28;19952;-81
2023/12/11 12:25:05;;;;;;;;;;;;;;;;;;6313885;28;20300;-81
2023/12/11 12:28:05;;;;;;;;;;;;;;;;;;6312819;28;20407;-81
2023/12/11 12:31:05;;;;;;;;;;;;;;;;;;6306534;28;20402;-82
2023/12/11 12:34:05;;;;;;;;;;;;;;;;;;6310658;28;20365;-81
2023/12/11 12:37:06;;;;;;;;;;;;;;;;;;6308601;28;19916;-80
2023/12/11 12:40:07;;;;;;;;;;;;;;;;;;6297129;28;19980;-83
2023/12/11 12:43:07;;;;;;;;;;;;;;;;;;6298516;28;20003;-84
2023/12/11 12:46:08;;;;;;;;;;;;;;;;;;6314374;28;20063;-84
2023/12/11 12:49:08;;;;;;;;;;;;;;;;;;6301325;28;19912;-84
2023/12/11 12:52:09;;;;;;;;;;;;;;;;;;6312429;28;20387;-83
2023/12/11 12:55:09;;;;;;;;;;;;;;;;;;6297269;28;20356;-84
2023/12/11 12:58:10;;;;;;;;;;;;;;;;;;6333771;28;19923;-82
2023/12/11 13:01:10;;;;;;;;;;;;;;;;;;6297129;28;19958;-83
2023/12/11 13:04:10;;;;;;;;;;;;;;;;;;6307254;28;20006;-84
2023/12/11 13:07:10;;;;;;;;;;;;;;;;;;6321869;28;20038;-83
2023/12/11 13:10:11;;;;;;;;;;;;;;;;;;6310555;28;20025;-84
2023/12/11 13:13:11;;;;;;;;;;;;;;;;;;6303707;28;19919;-84
2023/12/11 13:16:11;;;;;;;;;;;;;;;;;;6302396;28;20029;-84
2023/12/11 13:19:11;;;;;;;;;;;;;;;;;;6309854;28;20326;-84
2023/12/11 13:22:11;;;;;;;;;;;;;;;;;;6317496;28;20277;-82
2023/12/11 13:25:11;;;;;;;;;;;;;;;;;;6303604;28;20277;-84
2023/12/11 13:28:11;;;;;;;;;;;;;;;;;;6326530;28;20292;-85
2023/12/11 13:31:12;;;;;;;;;;;;;;;;;;6325321;28;20320;-84
2023/12/11 13:34:12;;;;;;;;;;;;;;;;;;6306042;28;19909;-85
2023/12/11 13:37:12;;;;;;;;;;;;;;;;;;6326525;28;19994;-85
2023/12/11 13:40:12;;;;;;;;;;;;;;;;;;6304418;28;19916;-85
2023/12/11 13:43:12;;;;;;;;;;;;;;;;;;6305906;28;19912;-84
2023/12/11 13:46:13;;;;;;;;;;;;;;;;;;6324215;28;20349;-85
2023/12/11 13:49:13;;;;;;;;;;;;;;;;;;6300175;28;20011;-85
2023/12/11 13:52:13;;;;;;;;;;;;;;;;;;6308438;28;19957;-85
2023/12/11 13:55:13;;;;;;;;;;;;;;;;;;6330022;28;19912;-85
2023/12/11 13:58:13;;;;;;;;;;;;;;;;;;6328963;28;19919;-85
2023/12/11 14:01:13;;;;;;;;;;;;;;;;;;6307305;28;19908;-84
2023/12/11 14:04:14;;;;;;;;;;;;;;;;;;6301710;28;19936;-84
2023/12/11 14:07:16;;;;;;;;;;;;;;;;;;6318341;28;19920;-84
2023/12/11 14:10:16;;;;;;;;;;;;;;;;;;6314338;28;19959;-85
2023/12/11 14:13:16;;;;;;;;;;;;;;;;;;6325763;28;19919;-82
2023/12/11 14:16:16;;;;;;;;;;;;;;;;;;6325588;28;19916;-82
2023/12/11 14:19:19;;;;;;;;;;;;;;;;;;6324897;28;19931;-81
2023/12/11 14:22:19;;;;;;;;;;;;;;;;;;6303773;28;19912;-82
2023/12/11 14:25:20;;;;;;;;;;;;;;;;;;6300130;28;20284;-82
2023/12/11 14:28:20;;;;;;;;;;;;;;;;;;6319672;28;19916;-82
2023/12/11 14:31:20;;;;;;;;;;;;;;;;;;6304236;28;19950;-81
2023/12/11 14:34:20;;;;;;;;;;;;;;;;;;6306172;28;20281;-82
2023/12/11 14:37:20;;;;;;;;;;;;;;;;;;6316787;28;19913;-81
2023/12/11 14:40:20;;;;;;;;;;;;;;;;;;6311637;28;19944;-81
2023/12/11 14:43:21;;;;;;;;;;;;;;;;;;6325000;28;19927;-82
2023/12/11 14:46:21;;;;;;;;;;;;;;;;;;6324835;28;19932;-82
2023/12/11 14:49:22;;;;;;;;;;;;;;;;;;6323384;28;19908;-82
2023/12/11 14:52:22;;;;;;;;;;;;;;;;;;6324498;28;20354;-82
2023/12/11 14:55:22;;;;;;;;;;;;;;;;;;6311512;28;19913;-82
2023/12/11 14:58:23;;;;;;;;;;;;;;;;;;6321576;28;19912;-83
2023/12/11 15:01:23;;;;;;;;;;;;;;;;;;6299247;28;19919;-82
2023/12/11 15:04:23;;;;;;;;;;;;;;;;;;6323014;28;19912;-82
2023/12/11 15:07:23;;;;;;;;;;;;;;;;;;6323844;28;19916;-83
2023/12/11 15:10:25;;;;;;;;;;;;;;;;;;6307282;28;19920;-82
2023/12/11 15:13:25;;;;;;;;;;;;;;;;;;6305019;28;19912;-82
2023/12/11 15:16:25;;;;;;;;;;;;;;;;;;6324296;28;19912;-82
2023/12/11 15:19:25;;;;;;;;;;;;;;;;;;6323304;28;19931;-83
2023/12/11 15:22:27;;;;;;;;;;;;;;;;;;6323846;28;20353;-82
2023/12/11 15:25:27;;;;;;;;;;;;;;;;;;6314093;28;19921;-85
2023/12/11 15:28:27;;;;;;;;;;;;;;;;;;6320110;28;19912;-85
2023/12/11 15:31:28;;;;;;;;;;;;;;;;;;6314135;28;19920;-84
2023/12/11 15:34:28;;;;;;;;;;;;;;;;;;6298772;28;19920;-85
2023/12/11 15:37:29;;;;;;;;;;;;;;;;;;6313090;28;19947;-83
2023/12/11 15:40:29;;;;;;;;;;;;;;;;;;6339267;28;20005;-84
2023/12/11 15:43:29;;;;;;;;;;;;;;;;;;6323190;28;19920;-84
2023/12/11 15:46:30;;;;;;;;;;;;;;;;;;6316442;28;19916;-84
2023/12/11 15:49:30;;;;;;;;;;;;;;;;;;6321103;28;19919;-85
2023/12/11 15:52:30;;;;;;;;;;;;;;;;;;6323151;28;19912;-84
2023/12/11 15:55:32;;;;;;;;;;;;;;;;;;6338711;28;19934;-84
2023/12/11 15:58:32;;;;;;;;;;;;;;;;;;6318951;28;19912;-85
2023/12/11 16:01:32;;;;;;;;;;;;;;;;;;6314635;28;19970;-84
2023/12/11 16:04:32;;;;;;;;;;;;;;;;;;6296166;28;20377;-84
2023/12/11 16:07:32;;;;;;;;;;;;;;;;;;6338613;28;20272;-84
2023/12/11 16:10:32;;;;;;;;;;;;;;;;;;6338067;28;20255;-84
2023/12/11 16:13:33;;;;;;;;;;;;;;;;;;6337111;28;20327;-84
2023/12/11 16:16:33;;;;;;;;;;;;;;;;;;6322764;28;20342;-84
2023/12/11 16:19:33;;;;;;;;;;;;;;;;;;6318213;28;19908;-84
2023/12/11 16:22:34;;;;;;;;;;;;;;;;;;6311658;28;19935;-84
2023/12/11 16:25:34;;;;;;;;;;;;;;;;;;6304426;28;20365;-83
2023/12/11 16:28:34;;;;;;;;;;;;;;;;;;6296194;28;19919;-84
2023/12/11 16:31:34;;;;;;;;;;;;;;;;;;6311298;28;19949;-84
2023/12/11 16:34:35;;;;;;;;;;;;;;;;;;6329470;28;20384;-85
2023/12/11 16:37:35;;;;;;;;;;;;;;;;;;6297511;28;20297;-84
2023/12/11 16:40:35;;;;;;;;;;;;;;;;;;6301940;28;20443;-84
2023/12/11 16:43:36;;;;;;;;;;;;;;;;;;6321088;28;19916;-85
2023/12/11 16:46:36;;;;;;;;;;;;;;;;;;6337958;28;19920;-84
2023/12/11 16:49:36;;;;;;;;;;;;;;;;;;6321255;28;19912;-86
2023/12/11 16:52:36;;;;;;;;;;;;;;;;;;6322265;28;19918;-84
2023/12/11 16:55:36;;;;;;;;;;;;;;;;;;6301204;28;20000;-83
2023/12/11 16:58:37;;;;;;;;;;;;;;;;;;6300298;28;19999;-84
2023/12/11 17:01:37;;;;;;;;;;;;;;;;;;6320809;28;20364;-84
2023/12/11 17:04:37;;;;;;;;;;;;;;;;;;6325751;28;19919;-86
2023/12/11 17:07:37;;;;;;;;;;;;;;;;;;6342889;28;19950;-84
2023/12/11 17:10:38;;;;;;;;;;;;;;;;;;6321888;28;20374;-84
2023/12/11 17:13:38;;;;;;;;;;;;;;;;;;6328272;28;19912;-84
2023/12/11 17:16:39;;;;;;;;;;;;;;;;;;6326422;28;20482;-84
2023/12/11 17:19:39;;;;;;;;;;;;;;;;;;6315364;28;19923;-84
2023/12/11 17:22:39;;;;;;;;;;;;;;;;;;6307612;28;19916;-84
2023/12/11 17:25:39;;;;;;;;;;;;;;;;;;6326236;28;19923;-84
2023/12/11 17:28:39;;;;;;;;;;;;;;;;;;6325616;28;19912;-84
2023/12/11 17:31:39;;;;;;;;;;;;;;;;;;6303875;28;19924;-84
2023/12/11 17:34:41;;;;;;;;;;;;;;;;;;6334755;27;19935;-85
2023/12/11 17:37:41;;;;;;;;;;;;;;;;;;6312827;28;19909;-84
2023/12/11 17:40:42;;;;;;;;;;;;;;;;;;6321288;28;20002;-84
2023/12/11 17:43:42;;;;;;;;;;;;;;;;;;6302491;28;20011;-85
2023/12/11 17:46:42;;;;;;;;;;;;;;;;;;6304069;28;20012;-84
2023/12/11 17:49:42;;;;;;;;;;;;;;;;;;6321271;28;19956;-83
2023/12/11 17:52:42;;;;;;;;;;;;;;;;;;6326996;28;20012;-87
2023/12/11 17:55:43;;;;;;;;;;;;;;;;;;6325145;28;19963;-87
2023/12/11 17:58:43;;;;;;;;;;;;;;;;;;6326035;28;19916;-83
2023/12/11 18:01:43;;;;;;;;;;;;;;;;;;6310123;28;19923;-87
2023/12/11 18:04:46;;;;;;;;;;;;;;;;;;6309578;28;19924;-83
2023/12/11 18:07:46;;;;;;;;;;;;;;;;;;6299888;28;19916;-84
2023/12/11 18:10:46;;;;;;;;;;;;;;;;;;6300769;28;19963;-85
2023/12/11 18:13:47;;;;;;;;;;;;;;;;;;6309678;28;19954;-83
2023/12/11 18:16:47;;;;;;;;;;;;;;;;;;6307572;28;20332;-85
2023/12/11 18:19:47;;;;;;;;;;;;;;;;;;6298723;28;20025;-86
2023/12/11 18:22:47;;;;;;;;;;;;;;;;;;6304208;28;19912;-86
2023/12/11 18:25:47;;;;;;;;;;;;;;;;;;6325136;28;19913;-85
2023/12/11 18:28:47;;;;;;;;;;;;;;;;;;6307170;28;19913;-86
2023/12/11 18:31:48;;;;;;;;;;;;;;;;;;6302606;28;19928;-86
2023/12/11 18:34:48;;;;;;;;;;;;;;;;;;6329767;28;20367;-85
2023/12/11 18:37:48;;;;;;;;;;;;;;;;;;6301858;28;19916;-86
2023/12/11 18:40:48;;;;;;;;;;;;;;;;;;6305835;28;19953;-85
2023/12/11 18:43:48;;;;;;;;;;;;;;;;;;6319933;28;19916;-85
2023/12/11 18:46:48;;;;;;;;;;;;;;;;;;6322702;28;19920;-84
2023/12/11 18:49:49;;;;;;;;;;;;;;;;;;6320770;28;19965;-85
2023/12/11 18:52:49;;;;;;;;;;;;;;;;;;6301472;28;19969;-85
2023/12/11 18:55:49;;;;;;;;;;;;;;;;;;6303444;28;19996;-82
2023/12/11 18:58:49;;;;;;;;;;;;;;;;;;6305321;28;19916;-82
2023/12/11 19:01:49;;;;;;;;;;;;;;;;;;6323918;28;20284;-82
2023/12/11 19:04:52;;;;;;;;;;;;;;;;;;6321809;28;19938;-83
2023/12/11 19:07:52;;;;;;;;;;;;;;;;;;6324400;28;19912;-82
2023/12/11 19:10:52;;;;;;;;;;;;;;;;;;6307907;28;19909;-86
2023/12/11 19:13:52;;;;;;;;;;;;;;;;;;6322675;28;19923;-82
2023/12/11 19:16:52;;;;;;;;;;;;;;;;;;6299136;28;19912;-82
2023/12/11 19:19:53;;;;;;;;;;;;;;;;;;6278749;28;19908;-82
2023/12/11 19:22:53;;;;;;;;;;;;;;;;;;6316626;28;19953;-82
2023/12/11 19:25:53;;;;;;;;;;;;;;;;;;6316064;28;19923;-81
2023/12/11 19:28:53;;;;;;;;;;;;;;;;;;6321547;28;19917;-82
2023/12/11 19:31:53;;;;;;;;;;;;;;;;;;6296782;28;19921;-81
2023/12/11 19:34:53;;;;;;;;;;;;;;;;;;6298081;28;19905;-82
2023/12/11 19:37:53;;;;;;;;;;;;;;;;;;6323684;28;19908;-82
2023/12/11 19:40:54;;;;;;;;;;;;;;;;;;6318644;28;19919;-81
2023/12/11 19:43:54;;;;;;;;;;;;;;;;;;6298249;28;19959;-81
2023/12/11 19:46:55;;;;;;;;;;;;;;;;;;6297507;28;19923;-82
2023/12/11 19:49:55;;;;;;;;;;;;;;;;;;6296925;28;20043;-82
2023/12/11 19:52:56;;;;;;;;;;;;;;;;;;6306467;28;20283;-82
2023/12/11 19:55:56;;;;;;;;;;;;;;;;;;6304593;28;19916;-82
2023/12/11 19:58:56;;;;;;;;;;;;;;;;;;6315266;28;19908;-83
2023/12/11 20:01:56;;;;;;;;;;;;;;;;;;6302033;28;20385;-82
2023/12/11 20:04:56;;;;;;;;;;;;;;;;;;5938932;28;10000533;-86
2023/12/11 20:07:56;;;;;;;;;;;;;;;;;;6312997;28;20389;-85
2023/12/11 20:10:56;;;;;;;;;;;;;;;;;;6317130;28;20379;-88
2023/12/11 20:13:57;;;;;;;;;;;;;;;;;;6320160;28;19982;-86
2023/12/11 20:16:57;;;;;;;;;;;;;;;;;;6310699;28;20365;-86
2023/12/11 20:19:59;;;;;;;;;;;;;;;;;;6299570;28;20373;-86
2023/12/11 20:22:59;;;;;;;;;;;;;;;;;;6303427;28;20399;-86
2023/12/11 20:26:03;;;;;;;;;;;;;;;;;;6318382;28;19946;-87